sensor_id;sensor_type;location;lat;lon;timestamp;P1;durP1;ratioP1;P2;durP2;ratioP2
27999;SDS011;15328;50.860;10.562;2024-01-30T00:00:32;9.50;;;5.15;;
27999;SDS011;15328;50.860;10.562;2024-01-30T00:05:32;9.85;;;4.82;;
27999;SDS011;15328;50.860;10.562;2024-01-30T00:10:33;6.53;;;3.97;;
27999;SDS011;15328;50.860;10.562;2024-01-30T00:15:33;8.13;;;3.87;;
27999;SDS011;15328;50.860;10.562;2024-01-30T00:20:34;7.00;;;3.53;;
27999;SDS011;15328;50.860;10.562;2024-01-30T00:25:35;7.03;;;4.10;;
27999;SDS011;15328;50.860;10.562;2024-01-30T00:30:35;6.70;;;3.77;;
27999;SDS011;15328;50.860;10.562;2024-01-30T00:35:35;9.18;;;4.72;;
27999;SDS011;15328;50.860;10.562;2024-01-30T00:40:36;6.93;;;4.03;;
27999;SDS011;15328;50.860;10.562;2024-01-30T00:45:36;7.05;;;4.00;;
27999;SDS011;15328;50.860;10.562;2024-01-30T00:50:37;5.85;;;4.00;;
27999;SDS011;15328;50.860;10.562;2024-01-30T00:55:37;5.47;;;3.60;;
27999;SDS011;15328;50.860;10.562;2024-01-30T01:00:38;5.85;;;3.70;;
27999;SDS011;15328;50.860;10.562;2024-01-30T01:05:39;4.55;;;3.40;;
27999;SDS011;15328;50.860;10.562;2024-01-30T01:10:39;5.63;;;3.30;;
27999;SDS011;15328;50.860;10.562;2024-01-30T01:15:40;5.97;;;3.53;;
27999;SDS011;15328;50.860;10.562;2024-01-30T01:20:41;8.10;;;3.72;;
27999;SDS011;15328;50.860;10.562;2024-01-30T01:25:41;7.72;;;4.10;;
27999;SDS011;15328;50.860;10.562;2024-01-30T01:30:41;6.35;;;3.92;;
27999;SDS011;15328;50.860;10.562;2024-01-30T01:35:42;7.55;;;4.03;;
27999;SDS011;15328;50.860;10.562;2024-01-30T01:40:42;5.88;;;3.78;;
27999;SDS011;15328;50.860;10.562;2024-01-30T01:45:44;5.50;;;3.40;;
27999;SDS011;15328;50.860;10.562;2024-01-30T01:50:45;5.55;;;3.60;;
27999;SDS011;15328;50.860;10.562;2024-01-30T01:55:46;4.78;;;3.30;;
27999;SDS011;15328;50.860;10.562;2024-01-30T02:00:47;4.80;;;3.38;;
27999;SDS011;15328;50.860;10.562;2024-01-30T02:05:48;7.18;;;3.55;;
27999;SDS011;15328;50.860;10.562;2024-01-30T02:10:49;5.43;;;3.42;;
27999;SDS011;15328;50.860;10.562;2024-01-30T02:15:50;7.40;;;4.45;;
27999;SDS011;15328;50.860;10.562;2024-01-30T02:20:51;9.82;;;5.00;;
27999;SDS011;15328;50.860;10.562;2024-01-30T02:25:53;9.73;;;4.80;;
27999;SDS011;15328;50.860;10.562;2024-01-30T02:30:54;7.15;;;4.15;;
27999;SDS011;15328;50.860;10.562;2024-01-30T02:35:54;5.70;;;3.73;;
27999;SDS011;15328;50.860;10.562;2024-01-30T02:40:55;7.18;;;4.13;;
27999;SDS011;15328;50.860;10.562;2024-01-30T02:45:56;7.22;;;3.92;;
27999;SDS011;15328;50.860;10.562;2024-01-30T02:50:58;8.27;;;4.13;;
27999;SDS011;15328;50.860;10.562;2024-01-30T02:55:58;5.32;;;3.40;;
27999;SDS011;15328;50.860;10.562;2024-01-30T03:00:59;6.53;;;3.80;;
27999;SDS011;15328;50.860;10.562;2024-01-30T03:05:59;6.78;;;4.15;;
27999;SDS011;15328;50.860;10.562;2024-01-30T03:10:59;5.43;;;3.53;;
27999;SDS011;15328;50.860;10.562;2024-01-30T03:16:00;7.80;;;4.25;;
27999;SDS011;15328;50.860;10.562;2024-01-30T03:21:00;7.30;;;4.50;;
27999;SDS011;15328;50.860;10.562;2024-01-30T03:26:01;8.88;;;5.78;;
27999;SDS011;15328;50.860;10.562;2024-01-30T03:31:01;10.38;;;5.68;;
27999;SDS011;15328;50.860;10.562;2024-01-30T03:36:05;8.90;;;5.65;;
27999;SDS011;15328;50.860;10.562;2024-01-30T03:41:08;9.98;;;5.88;;
27999;SDS011;15328;50.860;10.562;2024-01-30T03:46:12;11.32;;;6.28;;
27999;SDS011;15328;50.860;10.562;2024-01-30T03:51:13;11.00;;;6.28;;
27999;SDS011;15328;50.860;10.562;2024-01-30T03:56:14;10.63;;;5.80;;
27999;SDS011;15328;50.860;10.562;2024-01-30T04:01:15;12.35;;;6.13;;
27999;SDS011;15328;50.860;10.562;2024-01-30T04:06:15;9.93;;;5.80;;
27999;SDS011;15328;50.860;10.562;2024-01-30T04:11:17;9.23;;;5.07;;
27999;SDS011;15328;50.860;10.562;2024-01-30T04:16:22;8.45;;;4.80;;
27999;SDS011;15328;50.860;10.562;2024-01-30T04:21:23;9.07;;;4.55;;
27999;SDS011;15328;50.860;10.562;2024-01-30T04:26:23;7.20;;;4.20;;
27999;SDS011;15328;50.860;10.562;2024-01-30T04:31:23;6.03;;;3.50;;
27999;SDS011;15328;50.860;10.562;2024-01-30T04:36:24;5.53;;;3.60;;
27999;SDS011;15328;50.860;10.562;2024-01-30T04:41:24;5.05;;;3.60;;
27999;SDS011;15328;50.860;10.562;2024-01-30T04:46:26;6.15;;;3.70;;
27999;SDS011;15328;50.860;10.562;2024-01-30T04:51:26;5.47;;;3.65;;
27999;SDS011;15328;50.860;10.562;2024-01-30T04:56:28;4.72;;;3.70;;
27999;SDS011;15328;50.860;10.562;2024-01-30T05:01:28;5.43;;;3.33;;
27999;SDS011;15328;50.860;10.562;2024-01-30T05:06:28;6.13;;;3.80;;
27999;SDS011;15328;50.860;10.562;2024-01-30T05:11:30;4.80;;;3.55;;
27999;SDS011;15328;50.860;10.562;2024-01-30T05:16:31;7.05;;;3.67;;
27999;SDS011;15328;50.860;10.562;2024-01-30T05:21:31;8.90;;;4.60;;
27999;SDS011;15328;50.860;10.562;2024-01-30T05:26:31;6.20;;;3.85;;
27999;SDS011;15328;50.860;10.562;2024-01-30T05:31:32;6.05;;;3.60;;
27999;SDS011;15328;50.860;10.562;2024-01-30T05:36:32;5.10;;;3.60;;
27999;SDS011;15328;50.860;10.562;2024-01-30T05:41:33;5.40;;;3.80;;
27999;SDS011;15328;50.860;10.562;2024-01-30T05:46:33;4.93;;;3.50;;
27999;SDS011;15328;50.860;10.562;2024-01-30T05:51:34;6.57;;;3.95;;
27999;SDS011;15328;50.860;10.562;2024-01-30T05:56:34;7.13;;;4.40;;
27999;SDS011;15328;50.860;10.562;2024-01-30T06:01:34;8.00;;;5.00;;
27999;SDS011;15328;50.860;10.562;2024-01-30T06:06:35;8.40;;;5.00;;
27999;SDS011;15328;50.860;10.562;2024-01-30T06:11:36;8.73;;;4.50;;
27999;SDS011;15328;50.860;10.562;2024-01-30T06:16:36;6.78;;;4.30;;
27999;SDS011;15328;50.860;10.562;2024-01-30T06:21:36;6.65;;;4.32;;
27999;SDS011;15328;50.860;10.562;2024-01-30T06:26:38;6.00;;;3.75;;
27999;SDS011;15328;50.860;10.562;2024-01-30T06:31:41;7.03;;;4.03;;
27999;SDS011;15328;50.860;10.562;2024-01-30T06:36:42;6.90;;;4.50;;
27999;SDS011;15328;50.860;10.562;2024-01-30T06:41:42;10.03;;;4.60;;
27999;SDS011;15328;50.860;10.562;2024-01-30T06:46:43;7.35;;;4.53;;
27999;SDS011;15328;50.860;10.562;2024-01-30T06:51:44;6.20;;;4.38;;
27999;SDS011;15328;50.860;10.562;2024-01-30T06:56:44;9.30;;;5.35;;
27999;SDS011;15328;50.860;10.562;2024-01-30T07:01:44;7.70;;;4.47;;
27999;SDS011;15328;50.860;10.562;2024-01-30T07:06:45;8.43;;;4.60;;
27999;SDS011;15328;50.860;10.562;2024-01-30T07:11:45;8.10;;;5.38;;
27999;SDS011;15328;50.860;10.562;2024-01-30T07:16:45;11.35;;;5.68;;
27999;SDS011;15328;50.860;10.562;2024-01-30T07:21:46;7.33;;;4.93;;
27999;SDS011;15328;50.860;10.562;2024-01-30T07:26:46;9.20;;;5.85;;
27999;SDS011;15328;50.860;10.562;2024-01-30T07:31:46;7.33;;;5.20;;
27999;SDS011;15328;50.860;10.562;2024-01-30T07:36:47;7.90;;;5.20;;
27999;SDS011;15328;50.860;10.562;2024-01-30T07:41:47;9.55;;;5.90;;
27999;SDS011;15328;50.860;10.562;2024-01-30T07:46:47;9.50;;;5.90;;
27999;SDS011;15328;50.860;10.562;2024-01-30T07:51:48;11.27;;;5.67;;
27999;SDS011;15328;50.860;10.562;2024-01-30T07:56:48;7.95;;;5.22;;
27999;SDS011;15328;50.860;10.562;2024-01-30T08:01:49;7.78;;;5.50;;
27999;SDS011;15328;50.860;10.562;2024-01-30T08:06:49;10.37;;;6.17;;
27999;SDS011;15328;50.860;10.562;2024-01-30T08:11:50;9.15;;;5.20;;
27999;SDS011;15328;50.860;10.562;2024-01-30T08:16:50;10.93;;;6.15;;
27999;SDS011;15328;50.860;10.562;2024-01-30T08:21:50;9.63;;;5.93;;
27999;SDS011;15328;50.860;10.562;2024-01-30T08:26:51;9.63;;;5.80;;
27999;SDS011;15328;50.860;10.562;2024-01-30T08:31:51;10.07;;;6.00;;
27999;SDS011;15328;50.860;10.562;2024-01-30T08:36:51;11.63;;;6.47;;
27999;SDS011;15328;50.860;10.562;2024-01-30T08:41:52;12.10;;;6.30;;
27999;SDS011;15328;50.860;10.562;2024-01-30T08:46:52;12.70;;;6.43;;
27999;SDS011;15328;50.860;10.562;2024-01-30T08:51:53;10.20;;;5.65;;
27999;SDS011;15328;50.860;10.562;2024-01-30T08:56:53;9.25;;;5.65;;
27999;SDS011;15328;50.860;10.562;2024-01-30T09:01:56;9.05;;;5.30;;
27999;SDS011;15328;50.860;10.562;2024-01-30T09:06:58;10.15;;;6.22;;
27999;SDS011;15328;50.860;10.562;2024-01-30T09:11:58;11.75;;;6.38;;
27999;SDS011;15328;50.860;10.562;2024-01-30T09:17:02;12.57;;;6.18;;
27999;SDS011;15328;50.860;10.562;2024-01-30T09:22:03;9.35;;;6.05;;
27999;SDS011;15328;50.860;10.562;2024-01-30T09:27:03;10.23;;;6.38;;
27999;SDS011;15328;50.860;10.562;2024-01-30T09:32:04;13.80;;;6.82;;
27999;SDS011;15328;50.860;10.562;2024-01-30T09:37:07;11.30;;;6.47;;
27999;SDS011;15328;50.860;10.562;2024-01-30T09:42:11;10.15;;;6.10;;
27999;SDS011;15328;50.860;10.562;2024-01-30T09:47:18;12.50;;;6.90;;
27999;SDS011;15328;50.860;10.562;2024-01-30T09:52:19;10.70;;;6.55;;
27999;SDS011;15328;50.860;10.562;2024-01-30T09:57:19;11.70;;;6.65;;
27999;SDS011;15328;50.860;10.562;2024-01-30T10:02:21;11.27;;;6.97;;
27999;SDS011;15328;50.860;10.562;2024-01-30T10:07:22;9.80;;;7.03;;
27999;SDS011;15328;50.860;10.562;2024-01-30T10:12:23;14.43;;;7.28;;
27999;SDS011;15328;50.860;10.562;2024-01-30T10:17:26;12.75;;;7.15;;
27999;SDS011;15328;50.860;10.562;2024-01-30T10:22:27;12.75;;;6.72;;
27999;SDS011;15328;50.860;10.562;2024-01-30T10:27:27;10.60;;;6.80;;
27999;SDS011;15328;50.860;10.562;2024-01-30T10:32:29;9.95;;;6.43;;
27999;SDS011;15328;50.860;10.562;2024-01-30T10:37:29;10.82;;;7.15;;
27999;SDS011;15328;50.860;10.562;2024-01-30T10:42:32;12.07;;;7.68;;
27999;SDS011;15328;50.860;10.562;2024-01-30T10:47:32;13.75;;;8.02;;
27999;SDS011;15328;50.860;10.562;2024-01-30T10:52:34;11.60;;;7.75;;
27999;SDS011;15328;50.860;10.562;2024-01-30T10:57:35;11.82;;;7.78;;
27999;SDS011;15328;50.860;10.562;2024-01-30T11:02:39;12.73;;;7.63;;
27999;SDS011;15328;50.860;10.562;2024-01-30T11:07:41;11.38;;;7.60;;
27999;SDS011;15328;50.860;10.562;2024-01-30T11:12:41;12.15;;;7.85;;
27999;SDS011;15328;50.860;10.562;2024-01-30T11:22:50;12.82;;;7.57;;
27999;SDS011;15328;50.860;10.562;2024-01-30T11:27:53;9.85;;;7.00;;
27999;SDS011;15328;50.860;10.562;2024-01-30T11:33:07;12.30;;;7.47;;
27999;SDS011;15328;50.860;10.562;2024-01-30T11:38:13;13.27;;;7.57;;
27999;SDS011;15328;50.860;10.562;2024-01-30T11:43:14;12.27;;;7.88;;
27999;SDS011;15328;50.860;10.562;2024-01-30T11:48:17;12.38;;;8.10;;
27999;SDS011;15328;50.860;10.562;2024-01-30T11:53:17;11.85;;;7.22;;
27999;SDS011;15328;50.860;10.562;2024-01-30T11:58:17;10.13;;;7.03;;
27999;SDS011;15328;50.860;10.562;2024-01-30T12:03:18;11.33;;;7.60;;
27999;SDS011;15328;50.860;10.562;2024-01-30T12:08:18;12.77;;;7.00;;
27999;SDS011;15328;50.860;10.562;2024-01-30T12:13:19;11.30;;;6.70;;
27999;SDS011;15328;50.860;10.562;2024-01-30T12:18:19;11.07;;;7.38;;
27999;SDS011;15328;50.860;10.562;2024-01-30T12:23:20;11.15;;;7.68;;
27999;SDS011;15328;50.860;10.562;2024-01-30T12:28:25;12.13;;;7.28;;
27999;SDS011;15328;50.860;10.562;2024-01-30T12:33:29;11.05;;;6.80;;
27999;SDS011;15328;50.860;10.562;2024-01-30T12:38:30;9.93;;;6.82;;
27999;SDS011;15328;50.860;10.562;2024-01-30T12:43:31;9.00;;;6.13;;
27999;SDS011;15328;50.860;10.562;2024-01-30T12:48:31;9.90;;;6.47;;
27999;SDS011;15328;50.860;10.562;2024-01-30T12:53:32;9.63;;;6.30;;
27999;SDS011;15328;50.860;10.562;2024-01-30T12:58:32;11.38;;;6.50;;
27999;SDS011;15328;50.860;10.562;2024-01-30T13:03:33;9.60;;;6.50;;
27999;SDS011;15328;50.860;10.562;2024-01-30T13:08:33;10.95;;;6.20;;
27999;SDS011;15328;50.860;10.562;2024-01-30T13:13:34;11.20;;;6.20;;
27999;SDS011;15328;50.860;10.562;2024-01-30T13:18:35;11.57;;;6.38;;
27999;SDS011;15328;50.860;10.562;2024-01-30T13:23:36;9.65;;;6.05;;
27999;SDS011;15328;50.860;10.562;2024-01-30T13:28:36;10.40;;;6.90;;
27999;SDS011;15328;50.860;10.562;2024-01-30T13:33:36;10.32;;;6.38;;
27999;SDS011;15328;50.860;10.562;2024-01-30T13:38:37;10.05;;;6.78;;
27999;SDS011;15328;50.860;10.562;2024-01-30T13:43:39;13.02;;;7.28;;
27999;SDS011;15328;50.860;10.562;2024-01-30T13:48:39;11.93;;;7.15;;
27999;SDS011;15328;50.860;10.562;2024-01-30T13:53:40;11.38;;;7.18;;
27999;SDS011;15328;50.860;10.562;2024-01-30T13:58:40;10.02;;;6.65;;
27999;SDS011;15328;50.860;10.562;2024-01-30T14:03:41;12.32;;;6.97;;
27999;SDS011;15328;50.860;10.562;2024-01-30T14:08:41;12.23;;;7.10;;
27999;SDS011;15328;50.860;10.562;2024-01-30T14:13:42;11.82;;;7.38;;
27999;SDS011;15328;50.860;10.562;2024-01-30T14:18:42;10.77;;;6.88;;
27999;SDS011;15328;50.860;10.562;2024-01-30T14:23:42;11.13;;;6.80;;
27999;SDS011;15328;50.860;10.562;2024-01-30T14:28:43;11.37;;;6.90;;
27999;SDS011;15328;50.860;10.562;2024-01-30T14:33:43;10.88;;;6.95;;
27999;SDS011;15328;50.860;10.562;2024-01-30T14:38:44;13.68;;;7.35;;
27999;SDS011;15328;50.860;10.562;2024-01-30T14:43:44;13.57;;;7.78;;
27999;SDS011;15328;50.860;10.562;2024-01-30T14:48:45;10.93;;;6.67;;
27999;SDS011;15328;50.860;10.562;2024-01-30T14:53:45;10.05;;;6.72;;
27999;SDS011;15328;50.860;10.562;2024-01-30T14:58:45;13.30;;;6.07;;
27999;SDS011;15328;50.860;10.562;2024-01-30T15:03:46;12.55;;;6.78;;
27999;SDS011;15328;50.860;10.562;2024-01-30T15:08:46;11.23;;;6.78;;
27999;SDS011;15328;50.860;10.562;2024-01-30T15:13:47;13.13;;;7.00;;
27999;SDS011;15328;50.860;10.562;2024-01-30T15:18:48;13.73;;;7.10;;
27999;SDS011;15328;50.860;10.562;2024-01-30T15:23:48;12.07;;;8.40;;
27999;SDS011;15328;50.860;10.562;2024-01-30T15:28:48;24.77;;;11.57;;
27999;SDS011;15328;50.860;10.562;2024-01-30T15:33:49;11.93;;;7.30;;
27999;SDS011;15328;50.860;10.562;2024-01-30T15:38:49;11.87;;;7.97;;
27999;SDS011;15328;50.860;10.562;2024-01-30T15:43:50;10.07;;;7.13;;
27999;SDS011;15328;50.860;10.562;2024-01-30T15:48:51;12.90;;;7.50;;
27999;SDS011;15328;50.860;10.562;2024-01-30T15:53:51;12.23;;;7.80;;
27999;SDS011;15328;50.860;10.562;2024-01-30T15:58:51;12.10;;;7.63;;
27999;SDS011;15328;50.860;10.562;2024-01-30T16:03:52;10.02;;;6.82;;
27999;SDS011;15328;50.860;10.562;2024-01-30T16:08:52;14.17;;;7.27;;
27999;SDS011;15328;50.860;10.562;2024-01-30T16:13:54;12.32;;;7.35;;
27999;SDS011;15328;50.860;10.562;2024-01-30T16:18:54;15.68;;;8.45;;
27999;SDS011;15328;50.860;10.562;2024-01-30T16:23:55;11.88;;;7.47;;
27999;SDS011;15328;50.860;10.562;2024-01-30T16:28:55;11.48;;;7.38;;
27999;SDS011;15328;50.860;10.562;2024-01-30T16:33:56;14.55;;;7.25;;
27999;SDS011;15328;50.860;10.562;2024-01-30T16:38:57;11.35;;;6.95;;
27999;SDS011;15328;50.860;10.562;2024-01-30T16:43:58;13.48;;;7.78;;
27999;SDS011;15328;50.860;10.562;2024-01-30T16:48:59;12.63;;;7.83;;
27999;SDS011;15328;50.860;10.562;2024-01-30T16:53:59;11.52;;;7.20;;
27999;SDS011;15328;50.860;10.562;2024-01-30T16:59:00;15.63;;;7.32;;
27999;SDS011;15328;50.860;10.562;2024-01-30T17:04:01;13.67;;;7.47;;
27999;SDS011;15328;50.860;10.562;2024-01-30T17:09:01;11.90;;;7.10;;
27999;SDS011;15328;50.860;10.562;2024-01-30T17:14:02;11.07;;;6.97;;
27999;SDS011;15328;50.860;10.562;2024-01-30T17:19:03;12.50;;;7.43;;
27999;SDS011;15328;50.860;10.562;2024-01-30T17:24:03;12.25;;;7.72;;
27999;SDS011;15328;50.860;10.562;2024-01-30T17:29:04;11.00;;;7.32;;
27999;SDS011;15328;50.860;10.562;2024-01-30T17:34:05;12.70;;;7.63;;
27999;SDS011;15328;50.860;10.562;2024-01-30T17:39:05;14.63;;;7.73;;
27999;SDS011;15328;50.860;10.562;2024-01-30T17:44:07;11.00;;;6.90;;
27999;SDS011;15328;50.860;10.562;2024-01-30T17:49:07;10.75;;;7.10;;
27999;SDS011;15328;50.860;10.562;2024-01-30T17:54:08;17.40;;;8.32;;
27999;SDS011;15328;50.860;10.562;2024-01-30T17:59:09;14.55;;;7.50;;
27999;SDS011;15328;50.860;10.562;2024-01-30T18:04:09;11.82;;;7.38;;
27999;SDS011;15328;50.860;10.562;2024-01-30T18:09:10;12.27;;;7.47;;
27999;SDS011;15328;50.860;10.562;2024-01-30T18:14:10;11.07;;;7.40;;
27999;SDS011;15328;50.860;10.562;2024-01-30T18:19:10;11.95;;;7.53;;
27999;SDS011;15328;50.860;10.562;2024-01-30T18:24:11;14.40;;;7.53;;
27999;SDS011;15328;50.860;10.562;2024-01-30T18:29:11;11.90;;;7.57;;
27999;SDS011;15328;50.860;10.562;2024-01-30T18:34:12;14.25;;;8.25;;
27999;SDS011;15328;50.860;10.562;2024-01-30T18:39:14;14.88;;;8.77;;
27999;SDS011;15328;50.860;10.562;2024-01-30T18:44:14;15.45;;;9.30;;
27999;SDS011;15328;50.860;10.562;2024-01-30T18:49:14;14.00;;;8.00;;
27999;SDS011;15328;50.860;10.562;2024-01-30T18:54:15;16.42;;;9.55;;
27999;SDS011;15328;50.860;10.562;2024-01-30T18:59:15;13.15;;;7.65;;
27999;SDS011;15328;50.860;10.562;2024-01-30T19:04:18;14.85;;;8.10;;
27999;SDS011;15328;50.860;10.562;2024-01-30T19:09:19;12.73;;;7.83;;
27999;SDS011;15328;50.860;10.562;2024-01-30T19:14:22;14.32;;;7.68;;
27999;SDS011;15328;50.860;10.562;2024-01-30T19:19:22;12.63;;;7.70;;
27999;SDS011;15328;50.860;10.562;2024-01-30T19:24:23;14.03;;;8.07;;
27999;SDS011;15328;50.860;10.562;2024-01-30T19:29:23;13.40;;;8.37;;
27999;SDS011;15328;50.860;10.562;2024-01-30T19:34:23;20.63;;;8.17;;
27999;SDS011;15328;50.860;10.562;2024-01-30T19:39:24;12.97;;;8.50;;
27999;SDS011;15328;50.860;10.562;2024-01-30T19:44:27;14.07;;;8.30;;
27999;SDS011;15328;50.860;10.562;2024-01-30T19:49:27;13.87;;;8.63;;
27999;SDS011;15328;50.860;10.562;2024-01-30T19:54:27;12.55;;;8.25;;
27999;SDS011;15328;50.860;10.562;2024-01-30T19:59:29;13.63;;;8.07;;
27999;SDS011;15328;50.860;10.562;2024-01-30T20:04:30;15.73;;;8.98;;
27999;SDS011;15328;50.860;10.562;2024-01-30T20:09:31;14.25;;;8.85;;
27999;SDS011;15328;50.860;10.562;2024-01-30T20:14:31;14.85;;;8.45;;
27999;SDS011;15328;50.860;10.562;2024-01-30T20:19:31;13.77;;;8.10;;
27999;SDS011;15328;50.860;10.562;2024-01-30T20:24:32;17.52;;;9.57;;
27999;SDS011;15328;50.860;10.562;2024-01-30T20:29:32;13.80;;;8.85;;
27999;SDS011;15328;50.860;10.562;2024-01-30T20:34:33;12.50;;;8.30;;
27999;SDS011;15328;50.860;10.562;2024-01-30T20:39:34;16.98;;;9.13;;
27999;SDS011;15328;50.860;10.562;2024-01-30T20:44:34;14.47;;;9.57;;
27999;SDS011;15328;50.860;10.562;2024-01-30T20:49:35;15.70;;;9.85;;
27999;SDS011;15328;50.860;10.562;2024-01-30T20:54:36;18.88;;;9.93;;
27999;SDS011;15328;50.860;10.562;2024-01-30T20:59:36;15.70;;;9.88;;
27999;SDS011;15328;50.860;10.562;2024-01-30T21:04:37;15.43;;;10.10;;
27999;SDS011;15328;50.860;10.562;2024-01-30T21:09:37;17.50;;;10.83;;
27999;SDS011;15328;50.860;10.562;2024-01-30T21:14:37;17.90;;;10.90;;
27999;SDS011;15328;50.860;10.562;2024-01-30T21:19:38;18.40;;;10.73;;
27999;SDS011;15328;50.860;10.562;2024-01-30T21:24:38;16.02;;;10.85;;
27999;SDS011;15328;50.860;10.562;2024-01-30T21:29:38;13.80;;;9.60;;
27999;SDS011;15328;50.860;10.562;2024-01-30T21:34:41;17.10;;;10.20;;
27999;SDS011;15328;50.860;10.562;2024-01-30T21:39:41;15.52;;;10.35;;
27999;SDS011;15328;50.860;10.562;2024-01-30T21:44:42;19.60;;;11.07;;
27999;SDS011;15328;50.860;10.562;2024-01-30T21:49:42;20.03;;;11.53;;
27999;SDS011;15328;50.860;10.562;2024-01-30T21:54:43;16.30;;;11.02;;
27999;SDS011;15328;50.860;10.562;2024-01-30T21:59:43;17.02;;;10.25;;
27999;SDS011;15328;50.860;10.562;2024-01-30T22:04:43;16.60;;;10.17;;
27999;SDS011;15328;50.860;10.562;2024-01-30T22:09:46;19.90;;;10.57;;
27999;SDS011;15328;50.860;10.562;2024-01-30T22:14:46;15.98;;;10.02;;
27999;SDS011;15328;50.860;10.562;2024-01-30T22:19:46;14.18;;;8.40;;
27999;SDS011;15328;50.860;10.562;2024-01-30T22:24:47;16.08;;;10.63;;
27999;SDS011;15328;50.860;10.562;2024-01-30T22:29:47;16.97;;;10.63;;
27999;SDS011;15328;50.860;10.562;2024-01-30T22:34:48;13.50;;;9.02;;
27999;SDS011;15328;50.860;10.562;2024-01-30T22:39:48;20.85;;;12.85;;
27999;SDS011;15328;50.860;10.562;2024-01-30T22:44:48;16.97;;;11.33;;
27999;SDS011;15328;50.860;10.562;2024-01-30T22:49:49;15.02;;;9.88;;
27999;SDS011;15328;50.860;10.562;2024-01-30T22:54:49;14.23;;;9.90;;
27999;SDS011;15328;50.860;10.562;2024-01-30T22:59:49;15.55;;;10.63;;
27999;SDS011;15328;50.860;10.562;2024-01-30T23:04:50;17.23;;;10.50;;
27999;SDS011;15328;50.860;10.562;2024-01-30T23:09:50;19.63;;;11.60;;
27999;SDS011;15328;50.860;10.562;2024-01-30T23:14:51;15.83;;;10.53;;
27999;SDS011;15328;50.860;10.562;2024-01-30T23:19:52;21.98;;;12.25;;
27999;SDS011;15328;50.860;10.562;2024-01-30T23:24:52;19.50;;;11.75;;
27999;SDS011;15328;50.860;10.562;2024-01-30T23:29:53;22.75;;;13.45;;
27999;SDS011;15328;50.860;10.562;2024-01-30T23:34:53;17.23;;;11.40;;
27999;SDS011;15328;50.860;10.562;2024-01-30T23:39:53;18.23;;;11.07;;
27999;SDS011;15328;50.860;10.562;2024-01-30T23:44:54;19.97;;;12.47;;
27999;SDS011;15328;50.860;10.562;2024-01-30T23:49:54;18.17;;;11.87;;
27999;SDS011;15328;50.860;10.562;2024-01-30T23:54:54;16.27;;;10.80;;
27999;SDS011;15328;50.860;10.562;2024-01-30T23:59:55;19.10;;;13.27;;
